Time;durP1;ratioP1;P1;durP2;ratioP2;P2;SDS_P1;SDS_P2;PMS_P1;PMS_P2;Temp;Humidity;BMP_temperature;BMP_pressure;BME280_temperature;BME280_humidity;BME280_pressure;Samples;Min_cycle;Max_cycle;Signal;HPM_P1;HPM_P2
2021/06/07 00:00:24;;;;;;;41.83;31.05;;;;;;;;;;5008364;28;20761;-76
2021/06/07 00:02:49;;;;;;;36.53;30.58;;;;;;;;;;5007843;28;20330;-77
2021/06/07 00:05:17;;;;;;;39.30;31.88;;;;;;;;;;5008213;28;20650;-76
2021/06/07 00:07:42;;;;;;;36.13;31.48;;;;;;;;;;4971845;28;20281;-77
2021/06/07 00:10:11;;;;;;;38.20;31.08;;;;;;;;;;5007483;28;20289;-76
2021/06/07 00:12:37;;;;;;;35.03;30.83;;;;;;;;;;4988870;28;20184;-77
2021/06/07 00:15:07;;;;;;;41.47;32.25;;;;;;;;;;4988346;28;20227;-77
2021/06/07 00:17:32;;;;;;;40.45;31.83;;;;;;;;;;5009387;28;20217;-77
2021/06/07 00:19:58;;;;;;;43.58;33.88;;;;;;;;;;5010762;28;20630;-77
2021/06/07 00:22:23;;;;;;;39.83;32.08;;;;;;;;;;5006167;28;20202;-75
2021/06/07 00:24:49;;;;;;;39.25;32.22;;;;;;;;;;4989788;28;20179;-76
2021/06/07 00:27:14;;;;;;;37.88;31.02;;;;;;;;;;4988450;28;20188;-77
2021/06/07 00:29:39;;;;;;;39.88;32.33;;;;;;;;;;5007639;28;20207;-77
2021/06/07 00:32:06;;;;;;;39.65;31.60;;;;;;;;;;4998701;28;20222;-77
2021/06/07 00:34:31;;;;;;;38.05;31.27;;;;;;;;;;5007016;28;20230;-77
2021/06/07 00:36:56;;;;;;;38.28;31.45;;;;;;;;;;5007649;28;20233;-76
2021/06/07 00:39:24;;;;;;;36.55;31.55;;;;;;;;;;5008046;28;20219;-76
2021/06/07 00:41:50;;;;;;;39.13;31.88;;;;;;;;;;4989525;28;20213;-77
2021/06/07 00:44:22;;;;;;;36.65;30.65;;;;;;;;;;4989080;28;20187;-76
2021/06/07 00:46:47;;;;;;;36.50;30.52;;;;;;;;;;4990823;28;21048;-77
2021/06/07 00:49:12;;;;;;;38.67;30.40;;;;;;;;;;5011988;28;20211;-77
2021/06/07 00:51:39;;;;;;;35.42;30.52;;;;;;;;;;5007304;28;20681;-76
2021/06/07 00:54:06;;;;;;;39.30;31.50;;;;;;;;;;5008138;28;20187;-76
2021/06/07 00:56:31;;;;;;;39.20;31.88;;;;;;;;;;5006487;28;20208;-77
2021/06/07 00:58:56;;;;;;;40.72;31.48;;;;;;;;;;5008964;28;20572;-76
2021/06/07 01:01:25;;;;;;;37.00;30.20;;;;;;;;;;5005469;28;20196;-75
2021/06/07 01:03:56;;;;;;;36.55;31.45;;;;;;;;;;4985843;28;20659;-76
2021/06/07 01:06:22;;;;;;;35.33;31.10;;;;;;;;;;5005597;28;20203;-76
2021/06/07 01:08:48;;;;;;;34.22;29.63;;;;;;;;;;5008274;28;20212;-76
2021/06/07 01:11:14;;;;;;;38.55;30.83;;;;;;;;;;4995607;28;20179;-77
2021/06/07 01:13:40;;;;;;;34.83;29.88;;;;;;;;;;5006830;28;20195;-77
2021/06/07 01:16:06;;;;;;;36.60;29.95;;;;;;;;;;5007170;28;20341;-76
2021/06/07 01:18:32;;;;;;;36.05;29.77;;;;;;;;;;5010758;28;20262;-76
2021/06/07 01:21:05;;;;;;;36.33;30.25;;;;;;;;;;5010517;28;20198;-76
2021/06/07 01:23:33;;;;;;;32.30;28.55;;;;;;;;;;4990746;28;20217;-76
2021/06/07 01:26:01;;;;;;;38.03;30.30;;;;;;;;;;5007956;28;20195;-77
2021/06/07 01:28:26;;;;;;;35.63;29.73;;;;;;;;;;5009736;28;20207;-76
2021/06/07 01:30:54;;;;;;;34.35;29.42;;;;;;;;;;5008022;28;20202;-76
2021/06/07 01:33:21;;;;;;;38.35;30.42;;;;;;;;;;5009200;28;20226;-76
2021/06/07 01:35:48;;;;;;;37.13;31.00;;;;;;;;;;5008286;28;20199;-76
2021/06/07 01:38:14;;;;;;;35.60;30.88;;;;;;;;;;5011338;28;20199;-76
2021/06/07 01:40:46;;;;;;;38.10;30.10;;;;;;;;;;5010543;28;20202;-76
2021/06/07 01:43:12;;;;;;;35.17;29.02;;;;;;;;;;5012250;28;20820;-76
2021/06/07 01:45:41;;;;;;;36.65;29.63;;;;;;;;;;5025808;22;20325;-58
2021/06/07 01:48:10;;;;;;;34.40;29.70;;;;;;;;;;5002849;28;20215;-59
2021/06/07 01:50:36;;;;;;;34.78;29.20;;;;;;;;;;5000308;28;20196;-59
2021/06/07 01:53:05;;;;;;;37.20;29.48;;;;;;;;;;5008542;28;20194;-59
2021/06/07 01:55:36;;;;;;;36.17;30.17;;;;;;;;;;4989570;28;20210;-59
2021/06/07 01:58:03;;;;;;;36.63;29.05;;;;;;;;;;5001797;28;20235;-59
2021/06/07 02:00:50;;;;;;;34.85;28.63;;;;;;;;;;4998427;28;20183;-59
2021/06/07 02:03:19;;;;;;;31.35;27.88;;;;;;;;;;5004865;28;20269;-58
2021/06/07 02:05:48;;;;;;;35.33;28.42;;;;;;;;;;5003421;28;20245;-59
2021/06/07 02:08:17;;;;;;;31.75;27.23;;;;;;;;;;5000277;28;20209;-58
2021/06/07 02:10:57;;;;;;;30.98;26.95;;;;;;;;;;4984197;28;20219;-58
2021/06/07 02:13:25;;;;;;;33.78;27.45;;;;;;;;;;4992117;28;20197;-60
2021/06/07 02:16:02;;;;;;;31.63;27.95;;;;;;;;;;5007160;28;20227;-59
2021/06/07 02:18:28;;;;;;;31.88;27.25;;;;;;;;;;5004482;28;20198;-58
2021/06/07 02:20:53;;;;;;;30.15;26.30;;;;;;;;;;4986541;28;20190;-58
2021/06/07 02:23:24;;;;;;;30.67;27.17;;;;;;;;;;4990921;28;20266;-59
2021/06/07 02:25:56;;;;;;;30.70;26.23;;;;;;;;;;5005398;28;20186;-59
2021/06/07 02:28:26;;;;;;;31.40;26.60;;;;;;;;;;5007276;28;20201;-59
2021/06/07 02:30:51;;;;;;;31.55;27.02;;;;;;;;;;5007400;28;20197;-58
2021/06/07 02:33:17;;;;;;;30.58;26.73;;;;;;;;;;4990740;28;20606;-58
2021/06/07 02:35:44;;;;;;;31.60;26.48;;;;;;;;;;4984181;28;20305;-57
2021/06/07 02:38:15;;;;;;;29.40;26.00;;;;;;;;;;5008276;28;20215;-58
2021/06/07 02:40:42;;;;;;;28.17;24.38;;;;;;;;;;5004552;28;20210;-58
2021/06/07 02:43:10;;;;;;;28.17;25.00;;;;;;;;;;4990321;28;20647;-59
2021/06/07 02:45:35;;;;;;;26.40;23.50;;;;;;;;;;5007649;28;20701;-59
2021/06/07 02:48:03;;;;;;;24.83;21.67;;;;;;;;;;5002276;28;20195;-58
2021/06/07 02:50:37;;;;;;;24.35;21.80;;;;;;;;;;5007492;28;20187;-59
2021/06/07 02:53:04;;;;;;;24.08;20.83;;;;;;;;;;5005827;28;20222;-58
2021/06/07 02:55:51;;;;;;;22.23;19.90;;;;;;;;;;5003095;28;20203;-58
2021/06/07 02:58:22;;;;;;;22.67;19.75;;;;;;;;;;5004936;28;20711;-58
2021/06/07 03:00:52;;;;;;;20.83;18.63;;;;;;;;;;5006586;28;20266;-58
2021/06/07 03:03:24;;;;;;;20.20;16.67;;;;;;;;;;5009477;28;20191;-57
2021/06/07 03:05:51;;;;;;;18.77;15.73;;;;;;;;;;5006921;28;20249;-58
2021/06/07 03:08:20;;;;;;;18.73;16.27;;;;;;;;;;5000943;28;20188;-58
2021/06/07 03:10:50;;;;;;;20.90;16.00;;;;;;;;;;4987761;28;20724;-58
2021/06/07 03:13:17;;;;;;;18.30;16.50;;;;;;;;;;5007691;28;20184;-58
2021/06/07 03:15:44;;;;;;;19.60;16.67;;;;;;;;;;4999137;28;20199;-59
2021/06/07 03:18:10;;;;;;;21.17;17.13;;;;;;;;;;5005044;28;20218;-59
2021/06/07 03:20:41;;;;;;;17.80;15.90;;;;;;;;;;5004773;28;20578;-59
2021/06/07 03:23:15;;;;;;;18.67;16.15;;;;;;;;;;5006044;28;20686;-59
2021/06/07 03:25:47;;;;;;;18.23;16.10;;;;;;;;;;5008838;28;20337;-59
2021/06/07 03:28:13;;;;;;;18.42;16.50;;;;;;;;;;5002484;28;20891;-58
2021/06/07 03:30:39;;;;;;;17.40;15.60;;;;;;;;;;5003091;28;20194;-57
2021/06/07 03:33:06;;;;;;;17.37;15.53;;;;;;;;;;5004977;28;20199;-58
2021/06/07 03:35:35;;;;;;;17.43;15.23;;;;;;;;;;4987049;28;20210;-58
2021/06/07 03:38:01;;;;;;;20.23;15.70;;;;;;;;;;5001676;28;20345;-58
2021/06/07 03:40:31;;;;;;;16.90;14.80;;;;;;;;;;5007456;28;20266;-58
2021/06/07 03:42:58;;;;;;;19.83;15.30;;;;;;;;;;5004470;28;20188;-58
2021/06/07 03:45:29;;;;;;;22.05;15.63;;;;;;;;;;4989293;28;20195;-58
2021/06/07 03:47:56;;;;;;;18.83;15.73;;;;;;;;;;5000595;28;20214;-58
2021/06/07 03:50:30;;;;;;;16.57;14.50;;;;;;;;;;5000889;28;20565;-60
2021/06/07 03:53:00;;;;;;;20.63;15.27;;;;;;;;;;5003432;28;20190;-58
2021/06/07 03:55:29;;;;;;;17.93;15.57;;;;;;;;;;5002568;28;20334;-58
2021/06/07 03:57:56;;;;;;;17.50;15.20;;;;;;;;;;5001165;28;20728;-58
2021/06/07 04:00:24;;;;;;;19.58;15.75;;;;;;;;;;5006006;28;20211;-58
2021/06/07 04:02:52;;;;;;;18.97;14.67;;;;;;;;;;4989397;28;20253;-58
2021/06/07 04:05:18;;;;;;;17.33;15.33;;;;;;;;;;4995688;28;20702;-58
2021/06/07 04:07:46;;;;;;;17.50;14.90;;;;;;;;;;5003937;28;20215;-58
2021/06/07 04:10:16;;;;;;;19.53;15.53;;;;;;;;;;5005121;28;20187;-57
2021/06/07 04:12:47;;;;;;;17.83;14.95;;;;;;;;;;5003970;28;20205;-58
2021/06/07 04:15:18;;;;;;;19.53;15.67;;;;;;;;;;5001084;28;20221;-58
2021/06/07 04:17:43;;;;;;;18.38;15.70;;;;;;;;;;5007323;28;20202;-58
2021/06/07 04:20:13;;;;;;;19.00;14.50;;;;;;;;;;4969658;28;20230;-59
2021/06/07 04:22:40;;;;;;;18.38;15.35;;;;;;;;;;4988609;28;20245;-58
2021/06/07 04:25:09;;;;;;;19.17;15.80;;;;;;;;;;5006169;28;20671;-58
2021/06/07 04:27:38;;;;;;;20.92;16.17;;;;;;;;;;5004394;28;20216;-58
2021/06/07 04:30:08;;;;;;;18.43;16.47;;;;;;;;;;5007735;28;20651;-59
2021/06/07 04:32:39;;;;;;;18.17;16.00;;;;;;;;;;5004061;28;20214;-58
2021/06/07 04:35:09;;;;;;;21.02;17.50;;;;;;;;;;5000117;28;20216;-59
2021/06/07 04:37:42;;;;;;;18.98;16.95;;;;;;;;;;5002905;28;20264;-58
2021/06/07 04:40:11;;;;;;;18.95;16.67;;;;;;;;;;5006753;28;20187;-58
2021/06/07 04:42:39;;;;;;;25.27;17.77;;;;;;;;;;5004809;28;20245;-59
2021/06/07 04:45:09;;;;;;;21.40;19.17;;;;;;;;;;4997413;28;20249;-59
2021/06/07 04:47:37;;;;;;;26.52;18.88;;;;;;;;;;4988960;28;20222;-58
2021/06/07 04:50:06;;;;;;;23.73;19.70;;;;;;;;;;4982228;28;20245;-59
2021/06/07 04:52:35;;;;;;;21.05;18.67;;;;;;;;;;4985923;28;20190;-59
2021/06/07 04:55:03;;;;;;;23.67;19.50;;;;;;;;;;4997398;28;20203;-59
2021/06/07 04:57:29;;;;;;;22.63;20.30;;;;;;;;;;5002457;28;20215;-59
2021/06/07 04:59:57;;;;;;;23.88;19.60;;;;;;;;;;4986884;28;20188;-58
2021/06/07 05:02:27;;;;;;;23.70;20.38;;;;;;;;;;5003323;28;20207;-58
2021/06/07 05:04:59;;;;;;;25.70;21.38;;;;;;;;;;5008213;28;20191;-58
2021/06/07 05:07:26;;;;;;;23.13;20.77;;;;;;;;;;5009316;28;20749;-58
2021/06/07 05:09:56;;;;;;;24.73;19.70;;;;;;;;;;5009715;28;20191;-59
2021/06/07 05:12:23;;;;;;;25.50;20.90;;;;;;;;;;5003097;28;20286;-58
2021/06/07 05:14:51;;;;;;;24.17;21.05;;;;;;;;;;4990259;28;20674;-58
2021/06/07 05:17:17;;;;;;;28.13;21.25;;;;;;;;;;4999920;28;20213;-58
2021/06/07 05:19:46;;;;;;;23.50;20.55;;;;;;;;;;4999803;28;20270;-58
2021/06/07 05:22:11;;;;;;;23.40;20.85;;;;;;;;;;4998258;28;20745;-57
2021/06/07 05:24:38;;;;;;;22.70;19.23;;;;;;;;;;5002643;28;20266;-58
2021/06/07 05:27:07;;;;;;;24.98;20.65;;;;;;;;;;4989092;28;20203;-58
2021/06/07 05:29:35;;;;;;;26.33;21.33;;;;;;;;;;4979236;28;20204;-59
2021/06/07 05:32:02;;;;;;;22.25;19.67;;;;;;;;;;4999778;28;20268;-58
2021/06/07 05:34:30;;;;;;;23.38;20.08;;;;;;;;;;5003242;28;20195;-58
2021/06/07 05:36:58;;;;;;;22.42;19.75;;;;;;;;;;4997563;28;20214;-57
2021/06/07 05:39:23;;;;;;;22.77;20.35;;;;;;;;;;4999362;28;20195;-59
2021/06/07 05:41:53;;;;;;;22.67;19.15;;;;;;;;;;5002164;28;20226;-59
2021/06/07 05:44:21;;;;;;;24.70;20.45;;;;;;;;;;4992307;28;20183;-58
2021/06/07 05:46:47;;;;;;;22.55;20.20;;;;;;;;;;4998659;28;20235;-58
2021/06/07 05:49:18;;;;;;;27.17;22.20;;;;;;;;;;4990927;28;20311;-59
2021/06/07 05:51:53;;;;;;;25.00;21.77;;;;;;;;;;4996670;28;20768;-59
2021/06/07 05:54:18;;;;;;;24.48;21.83;;;;;;;;;;4997066;28;20193;-59
2021/06/07 05:56:44;;;;;;;25.65;21.92;;;;;;;;;;5005654;28;20203;-59
2021/06/07 05:59:11;;;;;;;23.10;20.80;;;;;;;;;;4992784;28;20215;-60
2021/06/07 06:01:41;;;;;;;24.80;22.05;;;;;;;;;;4997384;28;20223;-59
2021/06/07 06:04:11;;;;;;;25.02;22.30;;;;;;;;;;4999815;28;20271;-58
2021/06/07 06:06:39;;;;;;;25.23;21.73;;;;;;;;;;5004086;28;20628;-60
2021/06/07 06:09:07;;;;;;;24.35;21.67;;;;;;;;;;5007364;28;20222;-59
2021/06/07 06:11:35;;;;;;;24.27;21.70;;;;;;;;;;5009147;28;20219;-58
2021/06/07 06:14:01;;;;;;;25.67;22.83;;;;;;;;;;5007404;28;20194;-58
2021/06/07 06:16:26;;;;;;;25.90;23.00;;;;;;;;;;5001469;28;20237;-58
2021/06/07 06:18:52;;;;;;;29.95;23.80;;;;;;;;;;4998462;28;20228;-58
2021/06/07 06:21:20;;;;;;;27.92;23.02;;;;;;;;;;4991611;28;20183;-58
2021/06/07 06:23:52;;;;;;;29.55;22.92;;;;;;;;;;5007027;28;20187;-60
2021/06/07 06:26:23;;;;;;;25.38;22.42;;;;;;;;;;5007113;28;20219;-56
2021/06/07 06:28:51;;;;;;;30.05;25.00;;;;;;;;;;5004763;28;20198;-58
2021/06/07 06:31:17;;;;;;;27.92;24.90;;;;;;;;;;4996305;28;20191;-58
2021/06/07 06:33:44;;;;;;;33.45;25.60;;;;;;;;;;4984144;28;20271;-59
2021/06/07 06:36:14;;;;;;;29.38;24.30;;;;;;;;;;4998469;28;20731;-58
2021/06/07 06:38:40;;;;;;;30.10;25.15;;;;;;;;;;4996583;28;20585;-59
2021/06/07 06:41:07;;;;;;;31.65;25.95;;;;;;;;;;5006789;28;20206;-60
2021/06/07 06:43:35;;;;;;;30.48;26.10;;;;;;;;;;5009353;28;20762;-60
2021/06/07 06:46:01;;;;;;;28.60;25.63;;;;;;;;;;4997373;28;20187;-61
2021/06/07 06:48:27;;;;;;;31.65;26.20;;;;;;;;;;5007668;28;20198;-60
2021/06/07 06:50:53;;;;;;;30.38;26.83;;;;;;;;;;5006457;28;20222;-60
2021/06/07 06:53:21;;;;;;;32.15;27.17;;;;;;;;;;4989671;28;20211;-61
2021/06/07 06:55:52;;;;;;;30.90;25.35;;;;;;;;;;4998999;28;20320;-60
2021/06/07 06:58:21;;;;;;;31.08;27.77;;;;;;;;;;5001311;28;20202;-58
2021/06/07 07:00:47;;;;;;;33.90;27.40;;;;;;;;;;5005856;28;20281;-59
2021/06/07 07:03:18;;;;;;;28.48;25.38;;;;;;;;;;4987234;28;20600;-59
2021/06/07 07:05:48;;;;;;;33.92;28.83;;;;;;;;;;5002448;28;20204;-59
2021/06/07 07:08:17;;;;;;;31.55;28.17;;;;;;;;;;4981885;28;20198;-58
2021/06/07 07:10:45;;;;;;;31.88;28.35;;;;;;;;;;5003810;28;20199;-57
2021/06/07 07:13:13;;;;;;;30.85;27.55;;;;;;;;;;5005048;28;20725;-58
2021/06/07 07:15:43;;;;;;;33.42;28.08;;;;;;;;;;5002057;28;20294;-58
2021/06/07 07:18:10;;;;;;;32.28;26.48;;;;;;;;;;4995846;28;20223;-58
2021/06/07 07:20:36;;;;;;;29.95;25.58;;;;;;;;;;5001824;28;20191;-59
2021/06/07 07:23:06;;;;;;;30.67;26.50;;;;;;;;;;5002513;28;21713;-57
2021/06/07 07:25:34;;;;;;;31.58;25.45;;;;;;;;;;5004816;28;20234;-58
2021/06/07 07:27:59;;;;;;;30.58;25.20;;;;;;;;;;5004893;28;20215;-58
2021/06/07 07:30:28;;;;;;;28.42;23.42;;;;;;;;;;4999702;28;20849;-59
2021/06/07 07:32:55;;;;;;;28.70;24.30;;;;;;;;;;5002916;28;20499;-57
2021/06/07 07:35:26;;;;;;;25.85;22.98;;;;;;;;;;5003107;28;20230;-57
2021/06/07 07:37:52;;;;;;;26.35;23.52;;;;;;;;;;4987553;28;20269;-58
2021/06/07 07:40:19;;;;;;;28.50;24.63;;;;;;;;;;4989913;28;20184;-58
2021/06/07 07:42:50;;;;;;;31.00;26.15;;;;;;;;;;4986598;28;20667;-59
2021/06/07 07:45:21;;;;;;;29.33;26.23;;;;;;;;;;5003542;28;20202;-59
2021/06/07 07:47:49;;;;;;;32.75;26.35;;;;;;;;;;5005111;28;20211;-59
2021/06/07 07:50:18;;;;;;;30.58;27.15;;;;;;;;;;5003153;28;20328;-58
2021/06/07 07:52:47;;;;;;;29.48;26.27;;;;;;;;;;5002317;28;20194;-57
2021/06/07 07:55:22;;;;;;;29.48;26.10;;;;;;;;;;5004145;28;20183;-58
2021/06/07 07:57:52;;;;;;;32.55;28.73;;;;;;;;;;5004244;28;20256;-58
2021/06/07 08:00:21;;;;;;;32.47;27.90;;;;;;;;;;5003367;28;20195;-58
2021/06/07 08:02:48;;;;;;;33.55;29.85;;;;;;;;;;5007199;28;20183;-57
2021/06/07 08:05:16;;;;;;;37.95;28.83;;;;;;;;;;5002243;28;20194;-57
2021/06/07 08:07:42;;;;;;;31.92;28.45;;;;;;;;;;5004857;28;20237;-59
2021/06/07 08:10:10;;;;;;;32.97;29.42;;;;;;;;;;5007273;28;20195;-58
2021/06/07 08:12:36;;;;;;;34.78;29.77;;;;;;;;;;5004208;28;20201;-58
2021/06/07 08:15:06;;;;;;;33.38;29.88;;;;;;;;;;4988238;28;20179;-58
2021/06/07 08:17:34;;;;;;;34.03;29.10;;;;;;;;;;4987851;28;20222;-58
2021/06/07 08:19:59;;;;;;;33.33;29.77;;;;;;;;;;5002269;28;20195;-57
2021/06/07 08:22:24;;;;;;;35.67;29.23;;;;;;;;;;5005183;28;20247;-58
2021/06/07 08:24:55;;;;;;;32.83;29.15;;;;;;;;;;4996340;28;20179;-59
2021/06/07 08:27:22;;;;;;;34.28;29.63;;;;;;;;;;5002868;28;20322;-56
2021/06/07 08:29:50;;;;;;;33.65;29.08;;;;;;;;;;4987131;28;20261;-58
2021/06/07 08:32:16;;;;;;;31.45;27.92;;;;;;;;;;4987088;28;20195;-58
2021/06/07 08:34:44;;;;;;;28.23;25.35;;;;;;;;;;4976541;28;20778;-57
2021/06/07 08:37:12;;;;;;;26.33;23.52;;;;;;;;;;4991945;28;20229;-57
2021/06/07 08:39:39;;;;;;;26.95;23.83;;;;;;;;;;4990882;28;20664;-56
2021/06/07 08:42:05;;;;;;;27.67;24.67;;;;;;;;;;4990960;28;20191;-58
2021/06/07 08:44:34;;;;;;;28.25;25.02;;;;;;;;;;4990242;28;20199;-58
2021/06/07 08:46:59;;;;;;;27.80;24.77;;;;;;;;;;4992018;28;20223;-57
2021/06/07 08:49:25;;;;;;;28.73;25.63;;;;;;;;;;4980682;28;20199;-58
2021/06/07 08:51:52;;;;;;;28.63;25.50;;;;;;;;;;4996045;28;20199;-57
2021/06/07 08:54:20;;;;;;;25.73;23.05;;;;;;;;;;4990262;28;20192;-56
2021/06/07 08:56:48;;;;;;;26.25;23.60;;;;;;;;;;4989515;28;21632;-57
2021/06/07 08:59:14;;;;;;;28.58;25.58;;;;;;;;;;4989948;28;20199;-58
2021/06/07 09:01:45;;;;;;;28.60;25.55;;;;;;;;;;4997608;28;20223;-58
2021/06/07 09:04:22;;;;;;;28.05;25.02;;;;;;;;;;4976529;28;20238;-57
2021/06/07 09:06:50;;;;;;;28.20;25.25;;;;;;;;;;4990549;28;20337;-57
2021/06/07 09:09:20;;;;;;;27.00;24.20;;;;;;;;;;4993078;28;20187;-56
2021/06/07 09:12:08;;;;;;;24.52;21.83;;;;;;;;;;4979613;28;20180;-58
2021/06/07 09:14:41;;;;;;;22.08;19.85;;;;;;;;;;4990155;28;20183;-59
2021/06/07 09:17:25;;;;;;;21.60;18.88;;;;;;;;;;4992543;28;20218;-57
2021/06/07 09:20:16;;;;;;;19.75;17.58;;;;;;;;;;4991390;28;20210;-58
2021/06/07 09:22:51;;;;;;;21.92;19.63;;;;;;;;;;4991441;28;20187;-59
2021/06/07 09:25:22;;;;;;;27.40;24.63;;;;;;;;;;4990801;28;20694;-58
2021/06/07 09:28:08;;;;;;;26.85;23.40;;;;;;;;;;4992334;28;20307;-57
2021/06/07 09:30:40;;;;;;;26.13;23.45;;;;;;;;;;4992959;28;20218;-60
2021/06/07 09:33:29;;;;;;;29.73;26.63;;;;;;;;;;4992407;28;20180;-57
2021/06/07 09:36:27;;;;;;;31.52;27.02;;;;;;;;;;5003785;28;20207;-58
2021/06/07 09:38:55;;;;;;;32.83;29.30;;;;;;;;;;4988330;28;20199;-59
2021/06/07 09:41:21;;;;;;;34.47;30.90;;;;;;;;;;4993641;28;20226;-59
2021/06/07 09:43:53;;;;;;;33.17;27.70;;;;;;;;;;4991790;28;20187;-59
2021/06/07 09:46:25;;;;;;;35.83;30.42;;;;;;;;;;4988518;28;20222;-59
2021/06/07 09:49:07;;;;;;;33.05;28.55;;;;;;;;;;4988946;28;20263;-58
2021/06/07 09:51:35;;;;;;;31.63;28.13;;;;;;;;;;4972262;28;20250;-58
2021/06/07 09:54:00;;;;;;;28.75;24.23;;;;;;;;;;4974162;28;20187;-58
2021/06/07 09:56:26;;;;;;;28.55;25.42;;;;;;;;;;4973209;28;20305;-58
2021/06/07 09:58:52;;;;;;;26.92;24.13;;;;;;;;;;4991123;28;20220;-58
2021/06/07 10:01:21;;;;;;;30.83;26.23;;;;;;;;;;4991611;28;20179;-57
2021/06/07 10:04:04;;;;;;;32.85;26.38;;;;;;;;;;4993278;28;20585;-58
2021/06/07 10:06:35;;;;;;;29.58;26.42;;;;;;;;;;4990631;28;20212;-58
2021/06/07 10:09:05;;;;;;;27.92;24.85;;;;;;;;;;4991177;28;20305;-58
2021/06/07 10:11:40;;;;;;;30.10;26.38;;;;;;;;;;4992406;28;20192;-58
2021/06/07 10:14:11;;;;;;;30.27;23.55;;;;;;;;;;4988276;28;20190;-58
2021/06/07 10:16:49;;;;;;;27.60;24.42;;;;;;;;;;4985909;28;20222;-57
2021/06/07 10:19:20;;;;;;;27.10;23.00;;;;;;;;;;4977483;28;20250;-57
2021/06/07 10:21:46;;;;;;;27.92;23.75;;;;;;;;;;4992563;28;20196;-57
2021/06/07 10:24:14;;;;;;;24.80;22.15;;;;;;;;;;4994043;28;20188;-58
2021/06/07 10:26:42;;;;;;;29.00;23.73;;;;;;;;;;4990712;28;20206;-57
2021/06/07 10:29:10;;;;;;;36.92;26.30;;;;;;;;;;4975833;28;20262;-57
2021/06/07 10:31:40;;;;;;;28.83;25.77;;;;;;;;;;4993132;28;20899;-57
2021/06/07 10:34:11;;;;;;;28.17;24.65;;;;;;;;;;4992549;28;20246;-57
2021/06/07 10:36:39;;;;;;;31.55;25.83;;;;;;;;;;4989739;28;20207;-58
2021/06/07 10:39:22;;;;;;;27.17;22.88;;;;;;;;;;4977204;28;20207;-57
2021/06/07 10:42:07;;;;;;;27.65;22.52;;;;;;;;;;4993285;28;20218;-58
2021/06/07 10:44:45;;;;;;;26.75;21.92;;;;;;;;;;4991725;28;20378;-58
2021/06/07 10:47:25;;;;;;;27.05;24.15;;;;;;;;;;4995238;28;20328;-56
2021/06/07 10:50:07;;;;;;;27.15;24.15;;;;;;;;;;4975562;28;20195;-57
2021/06/07 10:52:56;;;;;;;27.80;24.77;;;;;;;;;;4976302;28;20796;-58
2021/06/07 10:55:26;;;;;;;26.38;23.63;;;;;;;;;;4979173;28;20188;-59
2021/06/07 10:57:59;;;;;;;28.05;25.10;;;;;;;;;;4993738;28;20680;-60
2021/06/07 11:00:35;;;;;;;28.02;24.85;;;;;;;;;;4997504;28;20207;-58
2021/06/07 11:03:17;;;;;;;29.00;25.60;;;;;;;;;;5003064;28;20196;-57
2021/06/07 11:05:44;;;;;;;31.38;26.58;;;;;;;;;;5002367;28;20201;-58
2021/06/07 11:08:11;;;;;;;31.95;27.33;;;;;;;;;;5006155;28;20199;-59
2021/06/07 11:10:45;;;;;;;28.63;25.73;;;;;;;;;;4997878;28;20195;-57
2021/06/07 11:13:24;;;;;;;29.85;25.77;;;;;;;;;;4984784;28;20682;-57
2021/06/07 11:15:58;;;;;;;27.73;24.80;;;;;;;;;;4998168;28;20228;-57
2021/06/07 11:18:48;;;;;;;27.48;24.50;;;;;;;;;;4988841;28;20195;-57
2021/06/07 11:21:15;;;;;;;29.85;25.58;;;;;;;;;;5007513;28;20192;-58
2021/06/07 11:23:44;;;;;;;27.05;23.77;;;;;;;;;;5004338;28;20206;-57
2021/06/07 11:26:12;;;;;;;27.50;24.45;;;;;;;;;;5000594;28;20203;-57
2021/06/07 11:28:42;;;;;;;27.02;24.38;;;;;;;;;;5006039;28;20190;-58
2021/06/07 11:31:22;;;;;;;25.75;23.05;;;;;;;;;;4998096;28;20230;-59
2021/06/07 11:34:01;;;;;;;25.95;23.25;;;;;;;;;;5003693;28;20194;-58
2021/06/07 11:36:39;;;;;;;27.27;24.42;;;;;;;;;;5000655;28;20222;-59
2021/06/07 11:39:19;;;;;;;25.95;23.13;;;;;;;;;;5001809;28;20242;-57
2021/06/07 11:41:53;;;;;;;26.35;23.52;;;;;;;;;;5005260;28;20218;-59
2021/06/07 11:44:39;;;;;;;26.15;23.50;;;;;;;;;;5004058;28;20186;-58
2021/06/07 11:47:09;;;;;;;27.52;24.83;;;;;;;;;;5006612;28;20210;-59
2021/06/07 11:49:35;;;;;;;26.77;23.70;;;;;;;;;;5005720;28;20193;-57
2021/06/07 11:52:10;;;;;;;26.40;23.70;;;;;;;;;;5006281;28;20640;-57
2021/06/07 11:54:44;;;;;;;24.13;21.63;;;;;;;;;;5001681;28;20183;-57
2021/06/07 11:57:14;;;;;;;26.70;23.75;;;;;;;;;;5007328;28;20249;-57
2021/06/07 11:59:41;;;;;;;26.60;23.77;;;;;;;;;;4991729;28;20222;-57
2021/06/07 12:02:14;;;;;;;27.80;23.73;;;;;;;;;;4998938;28;20267;-58
2021/06/07 12:04:42;;;;;;;27.33;24.05;;;;;;;;;;5002632;28;20263;-58
2021/06/07 12:07:09;;;;;;;26.50;23.67;;;;;;;;;;4999865;28;20238;-59
2021/06/07 12:09:39;;;;;;;27.13;24.33;;;;;;;;;;5000642;28;20188;-59
2021/06/07 12:12:10;;;;;;;26.30;23.48;;;;;;;;;;5005141;28;20275;-59
2021/06/07 12:14:40;;;;;;;28.27;23.40;;;;;;;;;;4985565;28;20199;-58
2021/06/07 12:17:10;;;;;;;25.15;22.55;;;;;;;;;;5001346;28;20203;-58
2021/06/07 12:19:41;;;;;;;24.88;22.23;;;;;;;;;;5006993;28;20218;-58
2021/06/07 12:22:28;;;;;;;25.90;23.17;;;;;;;;;;5004686;28;20189;-59
2021/06/07 12:28:24;;;;;;;31.05;26.30;;;;;;;;;;4977375;28;20234;-58
2021/06/07 12:30:54;;;;;;;29.05;24.90;;;;;;;;;;5004105;28;20269;-58
2021/06/07 12:33:31;;;;;;;29.80;26.70;;;;;;;;;;5001251;28;20213;-59
2021/06/07 12:35:56;;;;;;;29.52;26.25;;;;;;;;;;4990587;28;20203;-60
2021/06/07 12:38:25;;;;;;;29.00;25.98;;;;;;;;;;4996539;28;20208;-59
2021/06/07 12:40:53;;;;;;;30.42;27.30;;;;;;;;;;4998572;28;20193;-59
2021/06/07 12:43:26;;;;;;;27.10;24.30;;;;;;;;;;5000930;28;20195;-59
2021/06/07 12:46:07;;;;;;;30.23;27.02;;;;;;;;;;4997226;28;20187;-58
2021/06/07 12:48:37;;;;;;;32.22;28.83;;;;;;;;;;4996417;28;20567;-58
2021/06/07 12:51:07;;;;;;;29.65;26.55;;;;;;;;;;4991941;28;20192;-59
2021/06/07 12:53:35;;;;;;;32.03;28.55;;;;;;;;;;4997379;28;20191;-61
2021/06/07 12:56:13;;;;;;;35.72;32.03;;;;;;;;;;4995316;28;20652;-58
2021/06/07 12:58:49;;;;;;;31.38;28.13;;;;;;;;;;4993669;28;20192;-59
2021/06/07 13:01:20;;;;;;;28.15;25.25;;;;;;;;;;5005250;28;20187;-58
2021/06/07 13:03:54;;;;;;;29.15;25.88;;;;;;;;;;5004498;28;20257;-60
2021/06/07 13:06:20;;;;;;;28.73;25.58;;;;;;;;;;5002564;28;20208;-58
2021/06/07 13:08:52;;;;;;;26.13;23.33;;;;;;;;;;4999941;28;21184;-59
2021/06/07 13:11:22;;;;;;;31.80;28.40;;;;;;;;;;5004761;28;20323;-60
2021/06/07 13:13:51;;;;;;;28.08;25.17;;;;;;;;;;4988442;28;20197;-60
2021/06/07 13:16:23;;;;;;;30.70;27.30;;;;;;;;;;5003204;28;20219;-59
2021/06/07 13:18:55;;;;;;;28.73;25.65;;;;;;;;;;5003571;28;20198;-59
2021/06/07 13:21:32;;;;;;;26.55;23.83;;;;;;;;;;5001100;28;20182;-59
2021/06/07 13:24:00;;;;;;;28.23;24.67;;;;;;;;;;4977515;28;20214;-60
2021/06/07 13:26:31;;;;;;;30.00;24.70;;;;;;;;;;4992588;28;20282;-59
2021/06/07 13:29:40;;;;;;;28.08;25.27;;;;;;;;;;4989214;28;20222;-59
2021/06/07 13:32:25;;;;;;;26.50;23.83;;;;;;;;;;4982209;28;20709;-60
2021/06/07 13:34:55;;;;;;;27.02;23.40;;;;;;;;;;4994253;28;20226;-60
2021/06/07 13:37:35;;;;;;;28.30;23.02;;;;;;;;;;4995371;28;20621;-61
2021/06/07 13:40:03;;;;;;;25.30;22.58;;;;;;;;;;5006966;28;20572;-59
2021/06/07 13:42:48;;;;;;;23.67;21.20;;;;;;;;;;5007895;28;20199;-59
2021/06/07 13:45:18;;;;;;;23.70;21.00;;;;;;;;;;5002764;28;20198;-59
2021/06/07 13:47:58;;;;;;;27.05;24.17;;;;;;;;;;5007417;28;20224;-61
2021/06/07 13:50:27;;;;;;;24.83;21.55;;;;;;;;;;5006923;28;20222;-60
2021/06/07 13:52:56;;;;;;;24.88;22.25;;;;;;;;;;5003251;28;20226;-60
2021/06/07 13:55:25;;;;;;;27.45;23.88;;;;;;;;;;5031923;22;21002;-57
2021/06/07 13:58:15;;;;;;;26.88;24.13;;;;;;;;;;5000639;28;20198;-58
2021/06/07 14:00:48;;;;;;;25.60;22.92;;;;;;;;;;5000244;28;20183;-56
2021/06/07 14:03:24;;;;;;;27.77;23.42;;;;;;;;;;4988719;28;20202;-58
2021/06/07 14:05:59;;;;;;;27.52;22.48;;;;;;;;;;4976893;28;20222;-58
2021/06/07 14:08:35;;;;;;;26.95;24.08;;;;;;;;;;5004015;28;20278;-57
2021/06/07 14:11:06;;;;;;;29.42;24.58;;;;;;;;;;5006428;28;20198;-58
2021/06/07 14:13:34;;;;;;;26.25;23.50;;;;;;;;;;5008834;28;20192;-57
2021/06/07 14:16:05;;;;;;;25.52;22.83;;;;;;;;;;5002781;28;20203;-57
2021/06/07 14:18:32;;;;;;;26.85;23.48;;;;;;;;;;5006495;28;20276;-57
2021/06/07 14:20:59;;;;;;;31.48;23.95;;;;;;;;;;5000486;28;20233;-58
2021/06/07 14:26:20;;;;;;;26.02;23.00;;;;;;;;;;5008237;28;23259;-57
2021/06/07 14:28:48;;;;;;;27.20;24.25;;;;;;;;;;5007566;28;20190;-57
2021/06/07 14:31:17;;;;;;;25.67;22.83;;;;;;;;;;4991101;28;20558;-57
2021/06/07 14:33:43;;;;;;;24.88;21.83;;;;;;;;;;5000736;28;20634;-57
2021/06/07 14:36:11;;;;;;;20.33;18.23;;;;;;;;;;5008332;28;20222;-57
2021/06/07 14:38:38;;;;;;;18.52;16.73;;;;;;;;;;5005508;28;20198;-57